sensor_id;sensor_type;location;lat;lon;timestamp;P1;durP1;ratioP1;P2;durP2;ratioP2
2021;SDS011;1015;49.756;6.994;2023-09-12T00:00:17;10.93;;;9.30;;
2021;SDS011;1015;49.756;6.994;2023-09-12T00:02:45;10.57;;;9.53;;
2021;SDS011;1015;49.756;6.994;2023-09-12T00:05:12;12.00;;;9.10;;
2021;SDS011;1015;49.756;6.994;2023-09-12T00:07:39;10.90;;;9.80;;
2021;SDS011;1015;49.756;6.994;2023-09-12T00:10:06;9.90;;;8.90;;
2021;SDS011;1015;49.756;6.994;2023-09-12T00:12:33;9.70;;;8.83;;
2021;SDS011;1015;49.756;6.994;2023-09-12T00:15:01;11.83;;;9.20;;
2021;SDS011;1015;49.756;6.994;2023-09-12T00:17:29;11.03;;;8.83;;
2021;SDS011;1015;49.756;6.994;2023-09-12T00:19:57;11.53;;;10.43;;
2021;SDS011;1015;49.756;6.994;2023-09-12T00:22:24;13.90;;;10.20;;
2021;SDS011;1015;49.756;6.994;2023-09-12T00:24:52;11.20;;;9.20;;
2021;SDS011;1015;49.756;6.994;2023-09-12T00:27:19;10.37;;;9.27;;
2021;SDS011;1015;49.756;6.994;2023-09-12T00:29:46;12.20;;;10.10;;
2021;SDS011;1015;49.756;6.994;2023-09-12T00:32:13;13.37;;;9.23;;
2021;SDS011;1015;49.756;6.994;2023-09-12T00:34:40;10.80;;;9.67;;
2021;SDS011;1015;49.756;6.994;2023-09-12T00:37:08;11.90;;;9.87;;
2021;SDS011;1015;49.756;6.994;2023-09-12T00:39:36;11.40;;;9.10;;
2021;SDS011;1015;49.756;6.994;2023-09-12T00:42:04;10.37;;;8.83;;
2021;SDS011;1015;49.756;6.994;2023-09-12T00:44:32;12.53;;;9.87;;
2021;SDS011;1015;49.756;6.994;2023-09-12T00:46:59;13.80;;;9.83;;
2021;SDS011;1015;49.756;6.994;2023-09-12T00:49:27;11.90;;;8.63;;
2021;SDS011;1015;49.756;6.994;2023-09-12T00:51:54;10.60;;;9.50;;
2021;SDS011;1015;49.756;6.994;2023-09-12T00:54:24;10.30;;;9.20;;
2021;SDS011;1015;49.756;6.994;2023-09-12T00:56:51;15.83;;;10.00;;
2021;SDS011;1015;49.756;6.994;2023-09-12T00:59:19;10.57;;;9.57;;
2021;SDS011;1015;49.756;6.994;2023-09-12T01:01:46;11.73;;;10.50;;
2021;SDS011;1015;49.756;6.994;2023-09-12T01:04:13;10.53;;;9.43;;
2021;SDS011;1015;49.756;6.994;2023-09-12T01:06:41;12.47;;;10.47;;
2021;SDS011;1015;49.756;6.994;2023-09-12T01:09:08;11.40;;;10.07;;
2021;SDS011;1015;49.756;6.994;2023-09-12T01:11:36;14.23;;;10.43;;
2021;SDS011;1015;49.756;6.994;2023-09-12T01:14:04;11.70;;;10.57;;
2021;SDS011;1015;49.756;6.994;2023-09-12T01:16:31;12.40;;;10.80;;
2021;SDS011;1015;49.756;6.994;2023-09-12T01:18:58;12.60;;;10.47;;
2021;SDS011;1015;49.756;6.994;2023-09-12T01:24:25;13.37;;;12.00;;
2021;SDS011;1015;49.756;6.994;2023-09-12T01:29:29;12.50;;;11.20;;
2021;SDS011;1015;49.756;6.994;2023-09-12T01:31:57;13.43;;;11.23;;
2021;SDS011;1015;49.756;6.994;2023-09-12T01:34:25;12.33;;;11.03;;
2021;SDS011;1015;49.756;6.994;2023-09-12T01:36:52;12.50;;;10.70;;
2021;SDS011;1015;49.756;6.994;2023-09-12T01:39:19;11.50;;;9.77;;
2021;SDS011;1015;49.756;6.994;2023-09-12T01:41:47;10.43;;;9.47;;
2021;SDS011;1015;49.756;6.994;2023-09-12T01:44:14;10.87;;;9.77;;
2021;SDS011;1015;49.756;6.994;2023-09-12T01:46:43;11.10;;;9.90;;
2021;SDS011;1015;49.756;6.994;2023-09-12T01:49:10;12.30;;;10.10;;
2021;SDS011;1015;49.756;6.994;2023-09-12T01:51:39;11.20;;;10.10;;
2021;SDS011;1015;49.756;6.994;2023-09-12T01:54:06;9.93;;;9.03;;
2021;SDS011;1015;49.756;6.994;2023-09-12T01:56:34;11.30;;;9.50;;
2021;SDS011;1015;49.756;6.994;2023-09-12T01:59:02;13.70;;;9.97;;
2021;SDS011;1015;49.756;6.994;2023-09-12T02:01:29;12.40;;;9.93;;
2021;SDS011;1015;49.756;6.994;2023-09-12T02:03:57;11.73;;;10.53;;
2021;SDS011;1015;49.756;6.994;2023-09-12T02:06:24;10.63;;;9.00;;
2021;SDS011;1015;49.756;6.994;2023-09-12T02:08:51;11.30;;;10.20;;
2021;SDS011;1015;49.756;6.994;2023-09-12T02:11:18;10.57;;;9.57;;
2021;SDS011;1015;49.756;6.994;2023-09-12T02:13:45;10.37;;;9.30;;
2021;SDS011;1015;49.756;6.994;2023-09-12T02:16:12;11.77;;;10.20;;
2021;SDS011;1015;49.756;6.994;2023-09-12T02:18:39;11.03;;;9.27;;
2021;SDS011;1015;49.756;6.994;2023-09-12T02:21:08;10.93;;;9.93;;
2021;SDS011;1015;49.756;6.994;2023-09-12T02:23:35;10.77;;;9.50;;
2021;SDS011;1015;49.756;6.994;2023-09-12T02:26:02;10.43;;;9.30;;
2021;SDS011;1015;49.756;6.994;2023-09-12T02:28:29;10.00;;;9.00;;
2021;SDS011;1015;49.756;6.994;2023-09-12T02:30:56;11.10;;;10.10;;
2021;SDS011;1015;49.756;6.994;2023-09-12T02:33:23;11.73;;;9.50;;
2021;SDS011;1015;49.756;6.994;2023-09-12T02:35:50;11.70;;;10.50;;
2021;SDS011;1015;49.756;6.994;2023-09-12T02:38:19;12.00;;;9.80;;
2021;SDS011;1015;49.756;6.994;2023-09-12T02:40:46;13.13;;;10.67;;
2021;SDS011;1015;49.756;6.994;2023-09-12T02:43:13;12.63;;;10.87;;
2021;SDS011;1015;49.756;6.994;2023-09-12T02:45:40;11.80;;;10.23;;
2021;SDS011;1015;49.756;6.994;2023-09-12T02:48:07;11.23;;;10.13;;
2021;SDS011;1015;49.756;6.994;2023-09-12T02:50:34;12.03;;;10.80;;
2021;SDS011;1015;49.756;6.994;2023-09-12T02:53:01;11.80;;;10.60;;
2021;SDS011;1015;49.756;6.994;2023-09-12T02:55:29;11.80;;;10.57;;
2021;SDS011;1015;49.756;6.994;2023-09-12T02:57:56;13.10;;;10.90;;
2021;SDS011;1015;49.756;6.994;2023-09-12T03:00:23;12.17;;;10.90;;
2021;SDS011;1015;49.756;6.994;2023-09-12T03:02:51;14.47;;;10.90;;
2021;SDS011;1015;49.756;6.994;2023-09-12T03:05:18;17.53;;;12.10;;
2021;SDS011;1015;49.756;6.994;2023-09-12T03:07:45;12.50;;;11.33;;
2021;SDS011;1015;49.756;6.994;2023-09-12T03:10:12;15.33;;;11.90;;
2021;SDS011;1015;49.756;6.994;2023-09-12T03:12:40;12.63;;;11.50;;
2021;SDS011;1015;49.756;6.994;2023-09-12T03:15:08;12.50;;;11.20;;
2021;SDS011;1015;49.756;6.994;2023-09-12T03:17:35;13.43;;;12.03;;
2021;SDS011;1015;49.756;6.994;2023-09-12T03:20:02;12.87;;;11.57;;
2021;SDS011;1015;49.756;6.994;2023-09-12T03:22:31;13.33;;;11.27;;
2021;SDS011;1015;49.756;6.994;2023-09-12T03:25:02;13.70;;;11.97;;
2021;SDS011;1015;49.756;6.994;2023-09-12T03:27:30;11.80;;;10.70;;
2021;SDS011;1015;49.756;6.994;2023-09-12T03:29:59;12.67;;;11.40;;
2021;SDS011;1015;49.756;6.994;2023-09-12T03:32:26;12.03;;;10.77;;
2021;SDS011;1015;49.756;6.994;2023-09-12T03:34:53;13.30;;;12.03;;
2021;SDS011;1015;49.756;6.994;2023-09-12T03:37:20;13.27;;;12.00;;
2021;SDS011;1015;49.756;6.994;2023-09-12T03:39:47;12.70;;;11.37;;
2021;SDS011;1015;49.756;6.994;2023-09-12T03:42:14;13.23;;;11.83;;
2021;SDS011;1015;49.756;6.994;2023-09-12T03:44:41;17.30;;;12.50;;
2021;SDS011;1015;49.756;6.994;2023-09-12T03:47:10;12.87;;;11.57;;
2021;SDS011;1015;49.756;6.994;2023-09-12T03:49:37;13.87;;;11.90;;
2021;SDS011;1015;49.756;6.994;2023-09-12T03:52:04;13.67;;;11.73;;
2021;SDS011;1015;49.756;6.994;2023-09-12T03:54:31;13.27;;;12.00;;
2021;SDS011;1015;49.756;6.994;2023-09-12T03:56:58;14.60;;;12.07;;
2021;SDS011;1015;49.756;6.994;2023-09-12T03:59:25;15.10;;;11.73;;
2021;SDS011;1015;49.756;6.994;2023-09-12T04:01:52;13.93;;;11.77;;
2021;SDS011;1015;49.756;6.994;2023-09-12T04:04:21;12.57;;;11.30;;
2021;SDS011;1015;49.756;6.994;2023-09-12T04:06:48;13.40;;;12.10;;
2021;SDS011;1015;49.756;6.994;2023-09-12T04:09:15;13.83;;;12.00;;
2021;SDS011;1015;49.756;6.994;2023-09-12T04:11:42;14.57;;;12.40;;
2021;SDS011;1015;49.756;6.994;2023-09-12T04:14:10;13.07;;;11.73;;
2021;SDS011;1015;49.756;6.994;2023-09-12T04:16:37;12.47;;;11.13;;
2021;SDS011;1015;49.756;6.994;2023-09-12T04:19:04;12.60;;;11.40;;
2021;SDS011;1015;49.756;6.994;2023-09-12T04:21:32;14.50;;;11.63;;
2021;SDS011;1015;49.756;6.994;2023-09-12T04:23:59;12.50;;;11.37;;
2021;SDS011;1015;49.756;6.994;2023-09-12T04:26:27;12.80;;;11.60;;
2021;SDS011;1015;49.756;6.994;2023-09-12T04:28:54;13.27;;;12.00;;
2021;SDS011;1015;49.756;6.994;2023-09-12T04:31:21;13.30;;;12.00;;
2021;SDS011;1015;49.756;6.994;2023-09-12T04:33:50;14.37;;;12.90;;
2021;SDS011;1015;49.756;6.994;2023-09-12T04:36:17;14.80;;;12.73;;
2021;SDS011;1015;49.756;6.994;2023-09-12T04:38:46;15.37;;;12.97;;
2021;SDS011;1015;49.756;6.994;2023-09-12T04:41:13;16.37;;;13.10;;
2021;SDS011;1015;49.756;6.994;2023-09-12T04:43:42;14.90;;;13.40;;
2021;SDS011;1015;49.756;6.994;2023-09-12T04:46:09;16.10;;;14.40;;
2021;SDS011;1015;49.756;6.994;2023-09-12T04:48:36;15.73;;;14.13;;
2021;SDS011;1015;49.756;6.994;2023-09-12T04:51:04;14.73;;;13.33;;
2021;SDS011;1015;49.756;6.994;2023-09-12T04:53:31;18.33;;;14.17;;
2021;SDS011;1015;49.756;6.994;2023-09-12T04:56:01;16.17;;;13.80;;
2021;SDS011;1015;49.756;6.994;2023-09-12T04:58:28;16.27;;;13.90;;
2021;SDS011;1015;49.756;6.994;2023-09-12T05:00:56;18.67;;;16.83;;
2021;SDS011;1015;49.756;6.994;2023-09-12T05:03:23;15.70;;;14.10;;
2021;SDS011;1015;49.756;6.994;2023-09-12T05:05:50;14.90;;;13.43;;
2021;SDS011;1015;49.756;6.994;2023-09-12T05:08:17;15.37;;;13.47;;
2021;SDS011;1015;49.756;6.994;2023-09-12T05:10:44;16.03;;;13.00;;
2021;SDS011;1015;49.756;6.994;2023-09-12T05:13:13;15.60;;;13.50;;
2021;SDS011;1015;49.756;6.994;2023-09-12T05:15:40;16.07;;;14.30;;
2021;SDS011;1015;49.756;6.994;2023-09-12T05:18:07;15.23;;;13.70;;
2021;SDS011;1015;49.756;6.994;2023-09-12T05:20:35;14.67;;;13.17;;
2021;SDS011;1015;49.756;6.994;2023-09-12T05:23:03;14.73;;;13.23;;
2021;SDS011;1015;49.756;6.994;2023-09-12T05:25:30;14.50;;;13.00;;
2021;SDS011;1015;49.756;6.994;2023-09-12T05:27:57;16.13;;;14.63;;
2021;SDS011;1015;49.756;6.994;2023-09-12T05:30:25;14.73;;;13.30;;
2021;SDS011;1015;49.756;6.994;2023-09-12T05:32:52;15.47;;;13.20;;
2021;SDS011;1015;49.756;6.994;2023-09-12T05:35:19;15.27;;;13.53;;
2021;SDS011;1015;49.756;6.994;2023-09-12T05:37:46;14.97;;;12.77;;
2021;SDS011;1015;49.756;6.994;2023-09-12T05:40:14;14.13;;;12.60;;
2021;SDS011;1015;49.756;6.994;2023-09-12T05:42:41;14.30;;;12.80;;
2021;SDS011;1015;49.756;6.994;2023-09-12T05:45:08;14.87;;;12.40;;
2021;SDS011;1015;49.756;6.994;2023-09-12T05:47:36;13.70;;;12.30;;
2021;SDS011;1015;49.756;6.994;2023-09-12T05:50:05;12.83;;;11.30;;
2021;SDS011;1015;49.756;6.994;2023-09-12T05:52:32;12.27;;;11.13;;
2021;SDS011;1015;49.756;6.994;2023-09-12T05:54:59;12.10;;;10.90;;
2021;SDS011;1015;49.756;6.994;2023-09-12T05:57:26;12.37;;;11.17;;
2021;SDS011;1015;49.756;6.994;2023-09-12T05:59:53;12.90;;;11.60;;
2021;SDS011;1015;49.756;6.994;2023-09-12T06:02:20;11.30;;;10.40;;
2021;SDS011;1015;49.756;6.994;2023-09-12T06:04:49;13.20;;;11.30;;
2021;SDS011;1015;49.756;6.994;2023-09-12T06:07:16;16.77;;;10.90;;
2021;SDS011;1015;49.756;6.994;2023-09-12T06:09:43;12.23;;;10.50;;
2021;SDS011;1015;49.756;6.994;2023-09-12T06:12:10;11.83;;;10.83;;
2021;SDS011;1015;49.756;6.994;2023-09-12T06:14:37;15.37;;;12.17;;
2021;SDS011;1015;49.756;6.994;2023-09-12T06:17:04;13.03;;;11.83;;
2021;SDS011;1015;49.756;6.994;2023-09-12T06:19:31;13.87;;;10.63;;
2021;SDS011;1015;49.756;6.994;2023-09-12T06:22:00;13.20;;;11.70;;
2021;SDS011;1015;49.756;6.994;2023-09-12T06:24:27;13.40;;;12.23;;
2021;SDS011;1015;49.756;6.994;2023-09-12T06:26:54;14.20;;;11.43;;
2021;SDS011;1015;49.756;6.994;2023-09-12T06:29:22;12.97;;;11.60;;
2021;SDS011;1015;49.756;6.994;2023-09-12T06:31:49;13.60;;;11.20;;
2021;SDS011;1015;49.756;6.994;2023-09-12T06:34:16;14.40;;;13.00;;
2021;SDS011;1015;49.756;6.994;2023-09-12T06:36:43;12.33;;;11.00;;
2021;SDS011;1015;49.756;6.994;2023-09-12T06:39:12;13.10;;;11.23;;
2021;SDS011;1015;49.756;6.994;2023-09-12T06:41:39;12.80;;;11.60;;
2021;SDS011;1015;49.756;6.994;2023-09-12T06:44:06;13.73;;;11.27;;
2021;SDS011;1015;49.756;6.994;2023-09-12T06:46:33;17.03;;;12.57;;
2021;SDS011;1015;49.756;6.994;2023-09-12T06:49:01;12.73;;;11.50;;
2021;SDS011;1015;49.756;6.994;2023-09-12T06:51:28;14.10;;;11.60;;
2021;SDS011;1015;49.756;6.994;2023-09-12T06:53:55;12.40;;;11.20;;
2021;SDS011;1015;49.756;6.994;2023-09-12T06:56:24;14.43;;;11.20;;
2021;SDS011;1015;49.756;6.994;2023-09-12T06:58:52;11.93;;;10.73;;
2021;SDS011;1015;49.756;6.994;2023-09-12T07:01:20;12.17;;;10.93;;
2021;SDS011;1015;49.756;6.994;2023-09-12T07:03:47;15.57;;;11.63;;
2021;SDS011;1015;49.756;6.994;2023-09-12T07:06:18;14.33;;;11.60;;
2021;SDS011;1015;49.756;6.994;2023-09-12T07:08:45;11.30;;;10.20;;
2021;SDS011;1015;49.756;6.994;2023-09-12T07:11:12;12.50;;;10.40;;
2021;SDS011;1015;49.756;6.994;2023-09-12T07:13:42;11.87;;;10.40;;
2021;SDS011;1015;49.756;6.994;2023-09-12T07:16:09;11.57;;;10.37;;
2021;SDS011;1015;49.756;6.994;2023-09-12T07:18:36;11.70;;;10.50;;
2021;SDS011;1015;49.756;6.994;2023-09-12T07:21:04;10.87;;;9.83;;
2021;SDS011;1015;49.756;6.994;2023-09-12T07:23:31;11.60;;;10.40;;
2021;SDS011;1015;49.756;6.994;2023-09-12T07:25:59;10.90;;;9.90;;
2021;SDS011;1015;49.756;6.994;2023-09-12T07:28:27;11.50;;;10.30;;
2021;SDS011;1015;49.756;6.994;2023-09-12T07:30:56;11.43;;;10.23;;
2021;SDS011;1015;49.756;6.994;2023-09-12T07:33:23;11.97;;;10.80;;
2021;SDS011;1015;49.756;6.994;2023-09-12T07:35:51;12.57;;;10.70;;
2021;SDS011;1015;49.756;6.994;2023-09-12T07:40:46;12.23;;;9.90;;
2021;SDS011;1015;49.756;6.994;2023-09-12T07:43:13;11.73;;;10.40;;
2021;SDS011;1015;49.756;6.994;2023-09-12T07:45:40;11.33;;;10.43;;
2021;SDS011;1015;49.756;6.994;2023-09-12T07:48:09;12.03;;;10.80;;
2021;SDS011;1015;49.756;6.994;2023-09-12T07:50:37;11.37;;;10.37;;
2021;SDS011;1015;49.756;6.994;2023-09-12T07:53:04;13.50;;;10.20;;
2021;SDS011;1015;49.756;6.994;2023-09-12T07:55:31;11.23;;;10.10;;
2021;SDS011;1015;49.756;6.994;2023-09-12T07:58:03;13.00;;;10.57;;
2021;SDS011;1015;49.756;6.994;2023-09-12T08:00:30;11.63;;;10.53;;
2021;SDS011;1015;49.756;6.994;2023-09-12T08:02:57;12.13;;;10.93;;
2021;SDS011;1015;49.756;6.994;2023-09-12T08:05:25;16.07;;;10.47;;
2021;SDS011;1015;49.756;6.994;2023-09-12T08:07:52;11.80;;;10.80;;
2021;SDS011;1015;49.756;6.994;2023-09-12T08:10:20;11.67;;;10.57;;
2021;SDS011;1015;49.756;6.994;2023-09-12T08:12:47;12.77;;;10.67;;
2021;SDS011;1015;49.756;6.994;2023-09-12T08:15:14;12.37;;;10.43;;
2021;SDS011;1015;49.756;6.994;2023-09-12T08:17:41;11.20;;;10.10;;
2021;SDS011;1015;49.756;6.994;2023-09-12T08:20:08;11.40;;;10.40;;
2021;SDS011;1015;49.756;6.994;2023-09-12T08:22:37;12.03;;;10.40;;
2021;SDS011;1015;49.756;6.994;2023-09-12T08:25:04;11.37;;;10.27;;
2021;SDS011;1015;49.756;6.994;2023-09-12T08:27:32;11.37;;;10.07;;
2021;SDS011;1015;49.756;6.994;2023-09-12T08:29:59;11.10;;;10.00;;
2021;SDS011;1015;49.756;6.994;2023-09-12T08:32:26;12.13;;;11.03;;
2021;SDS011;1015;49.756;6.994;2023-09-12T08:34:53;12.57;;;10.47;;
2021;SDS011;1015;49.756;6.994;2023-09-12T08:37:20;12.57;;;11.40;;
2021;SDS011;1015;49.756;6.994;2023-09-12T08:39:49;13.80;;;10.43;;
2021;SDS011;1015;49.756;6.994;2023-09-12T08:42:21;11.20;;;10.10;;
2021;SDS011;1015;49.756;6.994;2023-09-12T08:44:49;11.83;;;10.73;;
2021;SDS011;1015;49.756;6.994;2023-09-12T08:47:16;11.20;;;10.10;;
2021;SDS011;1015;49.756;6.994;2023-09-12T08:49:46;11.70;;;10.53;;
2021;SDS011;1015;49.756;6.994;2023-09-12T08:52:13;12.30;;;10.40;;
2021;SDS011;1015;49.756;6.994;2023-09-12T08:54:40;10.83;;;9.73;;
2021;SDS011;1015;49.756;6.994;2023-09-12T08:57:08;11.77;;;10.57;;
2021;SDS011;1015;49.756;6.994;2023-09-12T08:59:38;11.53;;;9.80;;
2021;SDS011;1015;49.756;6.994;2023-09-12T09:02:06;14.60;;;10.53;;
2021;SDS011;1015;49.756;6.994;2023-09-12T09:04:34;12.77;;;11.23;;
2021;SDS011;1015;49.756;6.994;2023-09-12T09:07:02;12.00;;;11.00;;
2021;SDS011;1015;49.756;6.994;2023-09-12T09:09:30;11.83;;;10.80;;
2021;SDS011;1015;49.756;6.994;2023-09-12T09:11:58;14.10;;;10.57;;
2021;SDS011;1015;49.756;6.994;2023-09-12T09:14:26;13.80;;;11.20;;
2021;SDS011;1015;49.756;6.994;2023-09-12T09:16:53;12.10;;;10.90;;
2021;SDS011;1015;49.756;6.994;2023-09-12T09:19:20;12.53;;;11.27;;
2021;SDS011;1015;49.756;6.994;2023-09-12T09:21:47;12.33;;;11.13;;
2021;SDS011;1015;49.756;6.994;2023-09-12T09:24:14;12.40;;;11.00;;
2021;SDS011;1015;49.756;6.994;2023-09-12T09:26:44;12.40;;;11.20;;
2021;SDS011;1015;49.756;6.994;2023-09-12T09:29:13;13.57;;;12.27;;
2021;SDS011;1015;49.756;6.994;2023-09-12T09:31:43;12.43;;;11.23;;
2021;SDS011;1015;49.756;6.994;2023-09-12T09:34:10;12.53;;;11.23;;
2021;SDS011;1015;49.756;6.994;2023-09-12T09:36:40;14.03;;;11.20;;
2021;SDS011;1015;49.756;6.994;2023-09-12T09:39:08;13.90;;;11.67;;
2021;SDS011;1015;49.756;6.994;2023-09-12T09:41:35;13.40;;;12.17;;
2021;SDS011;1015;49.756;6.994;2023-09-12T09:44:03;12.90;;;11.67;;
2021;SDS011;1015;49.756;6.994;2023-09-12T09:46:31;13.73;;;12.43;;
2021;SDS011;1015;49.756;6.994;2023-09-12T09:48:59;13.87;;;12.40;;
2021;SDS011;1015;49.756;6.994;2023-09-12T09:51:26;14.53;;;13.30;;
2021;SDS011;1015;49.756;6.994;2023-09-12T09:53:54;14.93;;;13.03;;
2021;SDS011;1015;49.756;6.994;2023-09-12T09:56:23;16.90;;;11.93;;
2021;SDS011;1015;49.756;6.994;2023-09-12T09:58:50;12.83;;;11.53;;
2021;SDS011;1015;49.756;6.994;2023-09-12T10:01:18;13.87;;;12.67;;
2021;SDS011;1015;49.756;6.994;2023-09-12T10:03:46;13.53;;;12.33;;
2021;SDS011;1015;49.756;6.994;2023-09-12T10:06:16;13.90;;;12.47;;
2021;SDS011;1015;49.756;6.994;2023-09-12T10:08:43;13.07;;;11.87;;
2021;SDS011;1015;49.756;6.994;2023-09-12T10:11:11;13.33;;;12.13;;
2021;SDS011;1015;49.756;6.994;2023-09-12T10:13:40;13.40;;;11.97;;
2021;SDS011;1015;49.756;6.994;2023-09-12T10:16:10;13.10;;;11.80;;
2021;SDS011;1015;49.756;6.994;2023-09-12T10:18:39;13.07;;;11.87;;
2021;SDS011;1015;49.756;6.994;2023-09-12T10:21:10;13.07;;;11.97;;
2021;SDS011;1015;49.756;6.994;2023-09-12T10:23:39;13.10;;;11.90;;
2021;SDS011;1015;49.756;6.994;2023-09-12T10:26:09;13.87;;;12.87;;
2021;SDS011;1015;49.756;6.994;2023-09-12T10:28:37;16.57;;;13.97;;
2021;SDS011;1015;49.756;6.994;2023-09-12T10:31:05;13.27;;;12.17;;
2021;SDS011;1015;49.756;6.994;2023-09-12T10:33:34;14.87;;;13.53;;
2021;SDS011;1015;49.756;6.994;2023-09-12T10:36:01;15.07;;;13.33;;
2021;SDS011;1015;49.756;6.994;2023-09-12T10:38:29;15.30;;;13.03;;
2021;SDS011;1015;49.756;6.994;2023-09-12T10:40:59;14.47;;;12.97;;
2021;SDS011;1015;49.756;6.994;2023-09-12T10:43:28;13.67;;;12.30;;
2021;SDS011;1015;49.756;6.994;2023-09-12T10:45:55;14.20;;;12.80;;
2021;SDS011;1015;49.756;6.994;2023-09-12T10:48:24;14.37;;;12.73;;
2021;SDS011;1015;49.756;6.994;2023-09-12T10:50:51;13.97;;;12.80;;
2021;SDS011;1015;49.756;6.994;2023-09-12T10:53:18;13.60;;;12.30;;
2021;SDS011;1015;49.756;6.994;2023-09-12T10:55:58;13.20;;;12.00;;
2021;SDS011;1015;49.756;6.994;2023-09-12T10:58:26;13.87;;;12.50;;
2021;SDS011;1015;49.756;6.994;2023-09-12T11:03:47;11.80;;;10.80;;
2021;SDS011;1015;49.756;6.994;2023-09-12T11:06:20;13.00;;;11.90;;
2021;SDS011;1015;49.756;6.994;2023-09-12T11:11:35;14.30;;;12.83;;
2021;SDS011;1015;49.756;6.994;2023-09-12T11:14:02;13.53;;;12.33;;
2021;SDS011;1015;49.756;6.994;2023-09-12T11:16:29;14.17;;;12.77;;
2021;SDS011;1015;49.756;6.994;2023-09-12T11:19:12;13.20;;;12.00;;
2021;SDS011;1015;49.756;6.994;2023-09-12T11:21:39;12.47;;;11.37;;
2021;SDS011;1015;49.756;6.994;2023-09-12T11:24:07;12.60;;;11.60;;
2021;SDS011;1015;49.756;6.994;2023-09-12T11:26:36;12.93;;;11.73;;
2021;SDS011;1015;49.756;6.994;2023-09-12T11:29:19;13.03;;;11.73;;
2021;SDS011;1015;49.756;6.994;2023-09-12T11:31:51;12.87;;;11.67;;
2021;SDS011;1015;49.756;6.994;2023-09-12T11:34:18;13.17;;;12.07;;
2021;SDS011;1015;49.756;6.994;2023-09-12T11:36:45;12.97;;;11.87;;
2021;SDS011;1015;49.756;6.994;2023-09-12T11:41:59;12.23;;;11.13;;
2021;SDS011;1015;49.756;6.994;2023-09-12T11:44:26;11.67;;;10.70;;
2021;SDS011;1015;49.756;6.994;2023-09-12T11:46:55;13.33;;;12.10;;
2021;SDS011;1015;49.756;6.994;2023-09-12T11:49:28;13.17;;;12.00;;
2021;SDS011;1015;49.756;6.994;2023-09-12T11:51:55;14.13;;;11.97;;
2021;SDS011;1015;49.756;6.994;2023-09-12T11:54:24;13.50;;;12.20;;
2021;SDS011;1015;49.756;6.994;2023-09-12T11:56:52;13.63;;;12.33;;
2021;SDS011;1015;49.756;6.994;2023-09-12T11:59:23;12.50;;;11.33;;
2021;SDS011;1015;49.756;6.994;2023-09-12T12:01:50;13.50;;;12.40;;
2021;SDS011;1015;49.756;6.994;2023-09-12T12:04:17;13.53;;;12.43;;
2021;SDS011;1015;49.756;6.994;2023-09-12T12:06:47;14.23;;;11.40;;
2021;SDS011;1015;49.756;6.994;2023-09-12T12:09:14;12.80;;;11.80;;
2021;SDS011;1015;49.756;6.994;2023-09-12T12:11:43;13.37;;;12.07;;
2021;SDS011;1015;49.756;6.994;2023-09-12T12:14:11;13.97;;;12.47;;
2021;SDS011;1015;49.756;6.994;2023-09-12T12:16:41;12.67;;;11.47;;
2021;SDS011;1015;49.756;6.994;2023-09-12T12:19:08;13.13;;;11.73;;
2021;SDS011;1015;49.756;6.994;2023-09-12T12:21:36;11.60;;;10.30;;
2021;SDS011;1015;49.756;6.994;2023-09-12T12:24:04;12.47;;;11.37;;
2021;SDS011;1015;49.756;6.994;2023-09-12T12:26:31;9.93;;;9.03;;
2021;SDS011;1015;49.756;6.994;2023-09-12T12:28:59;11.80;;;10.83;;
2021;SDS011;1015;49.756;6.994;2023-09-12T12:31:27;12.13;;;10.70;;
2021;SDS011;1015;49.756;6.994;2023-09-12T12:33:56;8.97;;;8.17;;
2021;SDS011;1015;49.756;6.994;2023-09-12T12:36:24;13.23;;;12.03;;
2021;SDS011;1015;49.756;6.994;2023-09-12T12:38:52;11.87;;;10.87;;
2021;SDS011;1015;49.756;6.994;2023-09-12T12:41:22;12.47;;;11.27;;
2021;SDS011;1015;49.756;6.994;2023-09-12T12:43:49;12.60;;;11.40;;
2021;SDS011;1015;49.756;6.994;2023-09-12T12:46:17;12.97;;;11.97;;
2021;SDS011;1015;49.756;6.994;2023-09-12T12:48:46;13.30;;;12.20;;
2021;SDS011;1015;49.756;6.994;2023-09-12T12:51:15;12.50;;;11.43;;
2021;SDS011;1015;49.756;6.994;2023-09-12T12:53:43;14.00;;;12.80;;
2021;SDS011;1015;49.756;6.994;2023-09-12T12:56:11;12.50;;;11.10;;
2021;SDS011;1015;49.756;6.994;2023-09-12T12:58:44;12.53;;;11.40;;
2021;SDS011;1015;49.756;6.994;2023-09-12T13:01:11;12.47;;;11.33;;
2021;SDS011;1015;49.756;6.994;2023-09-12T13:03:39;10.87;;;9.97;;
2021;SDS011;1015;49.756;6.994;2023-09-12T13:06:06;12.23;;;11.23;;
2021;SDS011;1015;49.756;6.994;2023-09-12T13:08:39;11.10;;;10.10;;
2021;SDS011;1015;49.756;6.994;2023-09-12T13:11:07;11.03;;;10.07;;
2021;SDS011;1015;49.756;6.994;2023-09-12T13:13:34;11.07;;;10.07;;
2021;SDS011;1015;49.756;6.994;2023-09-12T13:16:02;10.60;;;9.60;;
2021;SDS011;1015;49.756;6.994;2023-09-12T13:18:29;10.53;;;9.63;;
2021;SDS011;1015;49.756;6.994;2023-09-12T13:20:57;11.80;;;10.70;;
2021;SDS011;1015;49.756;6.994;2023-09-12T13:23:24;10.77;;;9.90;;
2021;SDS011;1015;49.756;6.994;2023-09-12T13:25:52;11.90;;;10.60;;
2021;SDS011;1015;49.756;6.994;2023-09-12T13:28:19;11.27;;;10.17;;
2021;SDS011;1015;49.756;6.994;2023-09-12T13:30:48;11.83;;;10.43;;
2021;SDS011;1015;49.756;6.994;2023-09-12T13:33:15;10.60;;;9.70;;
2021;SDS011;1015;49.756;6.994;2023-09-12T13:35:42;11.10;;;10.03;;
2021;SDS011;1015;49.756;6.994;2023-09-12T13:38:10;12.57;;;11.40;;
2021;SDS011;1015;49.756;6.994;2023-09-12T13:40:37;12.03;;;10.33;;
2021;SDS011;1015;49.756;6.994;2023-09-12T13:43:05;10.50;;;9.50;;
2021;SDS011;1015;49.756;6.994;2023-09-12T13:45:33;11.30;;;9.73;;
2021;SDS011;1015;49.756;6.994;2023-09-12T13:48:00;11.63;;;10.43;;
2021;SDS011;1015;49.756;6.994;2023-09-12T13:50:28;11.00;;;10.00;;
2021;SDS011;1015;49.756;6.994;2023-09-12T13:52:57;10.83;;;9.77;;
2021;SDS011;1015;49.756;6.994;2023-09-12T13:55:25;10.57;;;9.70;;
2021;SDS011;1015;49.756;6.994;2023-09-12T13:57:52;11.00;;;9.90;;
2021;SDS011;1015;49.756;6.994;2023-09-12T14:00:21;13.20;;;10.93;;
2021;SDS011;1015;49.756;6.994;2023-09-12T14:02:48;11.50;;;10.30;;
2021;SDS011;1015;49.756;6.994;2023-09-12T14:05:15;11.93;;;10.60;;
2021;SDS011;1015;49.756;6.994;2023-09-12T14:07:43;13.63;;;12.50;;
2021;SDS011;1015;49.756;6.994;2023-09-12T14:10:10;12.60;;;11.50;;
2021;SDS011;1015;49.756;6.994;2023-09-12T14:12:37;13.10;;;11.90;;
2021;SDS011;1015;49.756;6.994;2023-09-12T14:15:04;12.93;;;11.73;;
2021;SDS011;1015;49.756;6.994;2023-09-12T14:17:33;12.53;;;11.23;;
2021;SDS011;1015;49.756;6.994;2023-09-12T14:20:00;12.17;;;11.07;;
2021;SDS011;1015;49.756;6.994;2023-09-12T14:22:27;12.63;;;11.43;;
2021;SDS011;1015;49.756;6.994;2023-09-12T14:24:54;11.97;;;11.00;;
2021;SDS011;1015;49.756;6.994;2023-09-12T14:27:21;11.93;;;10.83;;
2021;SDS011;1015;49.756;6.994;2023-09-12T14:29:48;11.50;;;10.47;;
2021;SDS011;1015;49.756;6.994;2023-09-12T14:32:16;12.20;;;11.03;;
2021;SDS011;1015;49.756;6.994;2023-09-12T14:34:44;10.43;;;9.60;;
2021;SDS011;1015;49.756;6.994;2023-09-12T14:37:11;11.07;;;10.03;;
2021;SDS011;1015;49.756;6.994;2023-09-12T14:39:38;10.33;;;9.33;;
2021;SDS011;1015;49.756;6.994;2023-09-12T14:42:05;10.50;;;9.50;;
2021;SDS011;1015;49.756;6.994;2023-09-12T14:44:34;11.93;;;10.93;;
2021;SDS011;1015;49.756;6.994;2023-09-12T14:47:01;11.43;;;10.00;;
2021;SDS011;1015;49.756;6.994;2023-09-12T14:49:28;9.40;;;8.50;;
2021;SDS011;1015;49.756;6.994;2023-09-12T14:51:56;10.00;;;9.20;;
2021;SDS011;1015;49.756;6.994;2023-09-12T14:54:23;9.70;;;9.00;;
2021;SDS011;1015;49.756;6.994;2023-09-12T14:56:50;10.47;;;9.57;;
2021;SDS011;1015;49.756;6.994;2023-09-12T14:59:17;10.03;;;9.23;;
2021;SDS011;1015;49.756;6.994;2023-09-12T15:01:45;10.20;;;9.50;;
2021;SDS011;1015;49.756;6.994;2023-09-12T15:04:12;11.13;;;9.33;;
2021;SDS011;1015;49.756;6.994;2023-09-12T15:06:39;10.80;;;9.80;;
2021;SDS011;1015;49.756;6.994;2023-09-12T15:09:08;11.53;;;10.40;;